Karl Hiljemark

Chief Scout - BK Hacken
20 Feb 2028
Sunday
Process

Personality

Adaptability (16) Ambition (7) Controversy (16) Loyalty (1) Pressure (4) Professionalism (3) Sportsmanship (15) Temperament (12)

Profile

Coaching Style Democratic
License Continental Pro
Determination 5
Man Management 6
Motivating 5
Discipline 9
Job Satisfaction
100%
Fatigue
0%
Role Chief Scout
Wage 56.7K p/w
Contract 14.03.2029

Performance

Behaviour Good
Training Effectiveness
44%
Player Development
30%
Injury Prevention
40%
Tactical Implementation
30%

Recent Events

Attended a recruitment meeting now
Attended a recruitment meeting now
Attended a recruitment meeting now
Attended a recruitment meeting now
Recommended a transfer target now
Recommended a transfer target now
Recommended a transfer target 7d ago
Recommended a transfer target 7d ago

Currently Monitoring

197
Player Club Status Ability Confidence Watched Last Observed Latest Vote
Dmitry Pestryakov Dinamo Moscow Active 103 / 110 40% 3 07.02.2028 -
Kyrylo Dihtiar Zorya Active 110 / 107 40% 1 07.02.2028 -
Bradley Phiri Gornik Zabrze Active 112 / 112 66% 1 01.02.2028 Approve
Taher Mohamed Real Salt Lake Report Ready 119 / 119 67% 1 01.02.2028 -
Avery Appiah Ajax Active 105 / 133 40% 1 31.01.2028 -
Soriba Diaoune AC Ajaccio Active 134 / 125 40% 1 31.01.2028 -
Thiago Szkaluba Korona Active 99 / 103 40% 1 30.01.2028 -
Mohammed Habib Sarwari Kariobangi Sharks Active 88 / 68 40% 2 27.01.2028 -
Ilja Ivarlak Spartak Moscow Active 86 / 89 40% 3 27.01.2028 -
Dani Díaz Real Sociedad Active 131 / 123 40% 1 26.01.2028 -
Tiziano Cabrera Central Norte Active 74 / 95 40% 2 24.01.2028 -
Kutlwano Letlhaku Ajax Cape Town Active 115 / 123 40% 2 22.01.2028 -
Gabe Forsyth Crawley Town Active 113 / 130 40% 1 22.01.2028 -
David Valencia Alianza Petrolera Active 129 / 146 40% 1 19.01.2028 -
Zakhar Chushkin Spartak Moscow Active 74 / 92 40% 1 19.01.2028 -
Esquerdinha Shrewsbury Town Active 120 / 120 40% 2 18.01.2028 -
Nikola Mitrović Sibir Active 78 / 77 40% 1 18.01.2028 -
Lewis Orford Swindon Town Active 102 / 100 40% 1 16.01.2028 -
Oscar Schwartau Norwich City Active 136 / 122 40% 1 16.01.2028 -
Mateo Peralta Danubio Active 105 / 119 40% 2 15.01.2028 -
Sheldon Dinesh Tranmere Rovers Active 108 / 93 40% 1 14.01.2028 -
Franco Tejera Oriental Active 70 / 69 40% 1 14.01.2028 -
Ryan Kavuma-McQueen Accrington Stanley Active 123 / 113 40% 1 13.01.2028 -
Álex Marchal Real Sociedad Active 103 / 127 40% 1 13.01.2028 -
Aarón Ochoa Málaga Active 134 / 134 40% 1 08.01.2028 -
Jofre Torrents Ajax Active 137 / 146 40% 2 07.01.2028 -
Tomás Aranda Boca Juniors Active 126 / 129 40% 1 07.01.2028 -
Juan Camilo Córdoba Deportivo Pereira Active 96 / 78 40% 3 05.01.2028 -
André Miranda Porto Active 101 / 113 40% 1 04.01.2028 -
Bop Guèye Haugesund Active 117 / 113 40% 1 04.01.2028 -
Luis Vidal Deportivo Pereira Active 99 / 90 40% 1 03.01.2028 -
Santiago López Independiente Active 132 / 141 40% 1 03.01.2028 -
Stanley Wilson AIK Active 84 / 86 40% 3 25.12.2027 -
Caleb Yirenkyi Coventry City Active 145 / 157 40% 6 23.12.2027 -
Ronan Kpakio Cardiff City Active 120 / 115 40% 2 22.12.2027 -
Hosea Michael Remo Stars Active 80 / 90 40% 1 22.12.2027 -
Mauro Carrizo Atlético Tucumán Active 100 / 105 40% 1 21.12.2027 -
Hervin Goyes Deportivo Pasto Active 111 / 105 40% 2 20.12.2027 -
Malte Hallin GIF Sundsvall Active 80 / 106 40% 1 20.12.2027 -
Joel Ezra Enyimba Active 96 / 97 40% 2 15.12.2027 -
Igor Tyjon Doncaster Rovers Active 114 / 134 40% 1 10.12.2027 -
Luca Williams-Barnett Tranmere Rovers Active 124 / 122 40% 1 10.12.2027 -
Clement Bischoff Red Bull Salzburg Active 142 / 141 40% 1 06.12.2027 -
Jayden Danns Wigan Athletic Active 149 / 154 40% 1 06.12.2027 -
Nika Kvaratskhelia Tskhinvali Active 107 / 106 40% 1 19.11.2027 -
Juan Morán Godoy Cruz Active 118 / 126 40% 1 10.11.2027 -
Tiago Parente Benfica Active 115 / 122 40% 1 10.11.2027 -
Matías Canedo Rampla Juniors Active 84 / 97 40% 1 09.11.2027 -
Julián Bazán Philadelphia Union Active 118 / 124 40% 1 07.11.2027 -
Marvelous Freedom Ikorodu City Active 81 / 87 40% 1 06.11.2027 -
Tyson Pearce St. Louis CITY SC Active 99 / 110 40% 1 05.11.2027 -
Tiago Gordillo San Miguel Active 102 / 88 40% 1 05.11.2027 -
Mikkel Hope Haugesund Active 105 / 98 40% 1 03.11.2027 -
Gift Udoh Ikorodu City Active 90 / 86 40% 1 03.11.2027 -
Jovan Milosavljević Kalmar FF Active 94 / 111 40% 1 01.11.2027 -
Lautaro Daus Defensores Active 92 / 99 40% 1 14.10.2027 -
Bruno Galván Almirante Brown Active 113 / 116 40% 1 14.10.2027 -
Daniel FC Dallas Active 146 / 139 40% 1 12.10.2027 -
Gastón Fernández Chacarita Juniors Active 101 / 94 40% 1 12.10.2027 -
Josh Cohen Chicago Fire Active 96 / 120 40% 1 09.10.2027 -
Dayne St. Clair Inter Miami CF Active 133 / 124 40% 1 08.10.2027 -
Roberto Ramírez Godoy Cruz Active 103 / 117 40% 1 08.10.2027 -
Iván Arboleda Sarmiento Active 136 / 139 40% 1 07.10.2027 -
Vincent Edafe Warri Wolves Active 96 / 96 40% 1 07.10.2027 -
Bruno Antúnez Boston River Active 111 / 108 40% 1 06.10.2027 -
Franco Rivasseau Patronato Active 92 / 100 40% 1 06.10.2027 -
Ikenna Benjamin Bayelsa United Active 91 / 94 40% 1 04.10.2027 -
Ali Ishaku Abia Warriors Active 103 / 111 40% 1 04.10.2027 -
Leo Castledine Middlesbrough Active 146 / 122 40% 1 03.08.2027 -
Alex Amaefula Kun Khalifat Active 81 / 82 40% 1 03.08.2027 -
Razvan Mitrita San Diego Football Club Negotiating 118 / 120 66% 1 16.07.2027 Approve
Juan Bezerra BK Hacken Active 117 / 121 66% 1 16.07.2027 Approve
Ísak Andri Sigurgeirsson IFK Norrkoping Active 108 / 127 62% 1 16.07.2027 Approve
Daniel Awuni Aduana Stars Active 86 / 105 40% 1 15.07.2027 -
Rocco Vata Watford Active 115 / 120 40% 1 14.07.2027 -
Tyreece Campbell Charlton Athletic Active 135 / 116 40% 1 14.07.2027 -
Lorent Tolaj Plymouth Argyle Active 117 / 124 40% 2 13.07.2027 -
Dom Ballard Leyton Orient Active 121 / 129 40% 4 13.07.2027 -
Lewis Morgan SuperSport United Active 124 / 135 40% 1 12.07.2027 Needs More Info
Joe Gelhardt Hull City Active 145 / 136 40% 4 11.07.2027 -
Tom Cannon Sheffield United Active 127 / 130 40% 1 11.07.2027 -
Oli McBurnie Hull City Active 140 / 125 40% 3 10.07.2027 -
Ronan Hale Gillingham Active 122 / 126 40% 2 09.07.2027 -
Lee Bonis Chesterfield Active 102 / 116 40% 3 07.07.2027 -
Callum O'Hare Sheffield United Active 129 / 124 40% 3 04.07.2027 -
Elijah Adebayo Luton Town Active 137 / 120 40% 1 04.07.2027 -
Mathias Jørgensen Blackburn Rovers Active 122 / 124 40% 2 03.07.2027 -
Hwang Hee-Chan Wolverhampton Active 144 / 143 40% 1 03.07.2027 -
Themba Ngcobo SuperSport United Active 113 / 109 40% 2 02.07.2027 -
Patson Daka Leicester City Active 141 / 135 40% 3 30.06.2027 -
Malik Mothersille Stockport County Active 109 / 112 40% 1 30.06.2027 -
Stephen Humphrys Bradford City Active 106 / 116 40% 3 28.06.2027 -
Yousef Salech Cardiff City Active 124 / 144 40% 5 27.06.2027 -
Mees Rijks Bristol Rovers Active 119 / 125 40% 1 26.06.2027 -
Richard Koné Queens Park Rangers Active 138 / 141 40% 2 25.06.2027 -
Tyrese Campbell Sheffield United Active 130 / 113 40% 3 24.06.2027 -
Bojan Radulović Huddersfield Town Active 125 / 134 40% 1 24.06.2027 -
Aune Heggebø West Bromwich Albion Active 144 / 138 40% 4 19.06.2027 -
Ilyas Ansah Hull City Active 148 / 150 40% 1 18.06.2027 -
Zian Flemming Ipswich Town Active 135 / 129 40% 2 15.06.2027 -
Aaron Collins Milton Keynes Dons Active 115 / 124 40% 1 15.06.2027 -
Dale Taylor Blackpool Active 100 / 107 40% 1 14.06.2027 -
Aaron Drinan Swindon Town Active 108 / 89 40% 1 06.06.2027 -
Luis Vázquez Birmingham Active 142 / 144 40% 2 28.05.2027 -
Sam Nombe Milton Keynes Dons Active 96 / 117 40% 2 24.05.2027 -
Robert Mizo Ashanti Gold Active 105 / 93 40% 1 19.05.2027 -
Harry Cornick AFC Wimbledon Active 91 / 106 40% 2 18.05.2027 -
Kyle Wootton Stockport County Active 124 / 125 40% 2 18.05.2027 -
Sam Bell Bristol City Active 108 / 115 40% 2 11.05.2027 -
Victor Adeboyejo Ismaily Active 117 / 103 40% 1 10.05.2027 -
Jens Odgaard Bologna Active 139 / 123 40% 1 08.05.2027 -
Othmane Maamma Watford Active 116 / 139 40% 1 30.03.2027 -
Hlompho Lorch Ajax Cape Town Active 113 / 92 40% 2 23.03.2027 -
Daniel Kelly Oxford United Active 108 / 126 40% 1 23.03.2027 -
Mandla Erasmus SuperSport United Active 120 / 135 40% 3 09.03.2027 -
Kasey McAteer Ipswich Town Active 135 / 132 40% 1 08.03.2027 -
Kwadwo Baah Watford Active 130 / 110 40% 1 08.03.2027 -
Williams Manyama SuperSport United Active 130 / 121 40% 2 16.02.2027 -
Ronald Swansea City Active 122 / 134 40% 2 16.02.2027 -
Riley Owen Trento Active 99 / 95 40% 2 08.02.2027 -
Keagan Tau Ajax Cape Town Active 87 / 106 40% 1 08.02.2027 -
Khama Dolly Utrecht Negotiating 123 / 124 67% 1 01.02.2027 Approve
Hussein Carneil Halmstad Active 111 / 108 62% 1 01.02.2027 Approve
Mohamed Belloumi Hull City Active 132 / 122 40% 1 30.01.2027 -
Morgan Whittaker Middlesbrough Active 130 / 139 40% 2 29.01.2027 -
Sonny Carey Charlton Athletic Active 121 / 111 40% 1 29.01.2027 -
Daniel Kyerewaa Reading Active 113 / 99 40% 4 27.01.2027 -
Petar Stanić Ludogorets Active 141 / 141 40% 1 27.01.2027 -
Simon Ramabu Polokwane City Active 111 / 112 40% 2 26.01.2027 -
Jason Knight Bristol City Active 131 / 116 40% 1 26.01.2027 -
Jack Diamond Stockport County Active 132 / 108 40% 1 24.01.2027 -
Tyler Goodrham Oxford United Active 118 / 124 40% 1 23.01.2027 -
Nazar Voloshyn Dynamo Kyiv Active 122 / 122 40% 1 23.01.2027 -
Marcelo Allende Mamelodi Sundowns Active 142 / 118 40% 4 22.01.2027 -
Tomás González Piast Active 118 / 128 40% 1 22.01.2027 -
Welington Southampton Active 120 / 146 40% 3 20.01.2027 -
Giorgi Chakvetadze Watford Active 119 / 142 40% 1 16.01.2027 -
Max Bird Birmingham Active 136 / 129 40% 1 16.01.2027 -
Reda Khadra Qarabag Active 144 / 118 40% 3 13.01.2027 -
Sayfallah Ltaief Cracovia Active 112 / 128 40% 3 11.01.2027 -
Tom Fellows Southampton Active 129 / 117 40% 1 11.01.2027 -
Jack McGlynn Stoke City Active 119 / 147 40% 1 08.01.2027 -
Sorba Thomas Stoke City Active 122 / 144 40% 1 08.01.2027 -
Scott Twine Bristol City Active 126 / 119 40% 1 07.01.2027 -
Ethan Galbraith Swansea City Active 143 / 113 40% 1 07.01.2027 -
Million Manhoef Stoke City Active 138 / 143 40% 1 06.01.2027 -
Tshepang Moremi Orlando Pirates Active 119 / 109 40% 1 05.01.2027 -
Isaiah Jones Luton Town Active 125 / 101 40% 1 04.01.2027 -
Dávid Strelec Middlesbrough Active 138 / 125 40% 1 31.12.2026 -
Ruben van Bommel Ferencvaros Active 121 / 114 40% 2 29.12.2026 -
Tommy Conway Middlesbrough Active 131 / 126 40% 1 28.12.2026 -
Romano Schmid Frosinone Active 154 / 130 40% 4 25.12.2026 -
Zeidane Inoussa Swansea City Active 129 / 120 40% 1 22.12.2026 -
Shea Charles Southampton Active 147 / 133 40% 1 20.12.2026 -
Cian Ashford Cardiff City Active 123 / 116 40% 1 20.12.2026 -
Derensili Sanches Fernandes Huddersfield Town Active 111 / 143 40% 1 19.12.2026 -
Oswin Appollis Orlando Pirates Active 112 / 107 40% 3 18.12.2026 -
Lukáš Červ Viktoria Plzen Active 127 / 116 40% 1 16.12.2026 -
Álex Centelles Levski Active 130 / 118 40% 1 13.12.2026 -
Ceyhun Nuriyev Gabala Active 118 / 95 40% 1 11.12.2026 -
Suleiman Camara Slovan Bratislava Active 125 / 132 40% 1 11.12.2026 -
Christian Krasnodar Active 150 / 123 40% 1 09.12.2026 -
Joaquín Gho Argentinos Juniors Active 128 / 129 40% 1 08.12.2026 -
Edvard Pettersen Sandefjord Active 106 / 119 40% 1 08.12.2026 -
João Simões Sporting CP Active 136 / 152 40% 1 07.12.2026 -
Alan Lescano Argentinos Juniors Active 117 / 142 40% 3 05.12.2026 -
Michal Kohút Banik Ostrava Active 142 / 119 40% 1 04.12.2026 -
Lucas Assadi AIK Active 136 / 138 40% 3 03.12.2026 -
Þórir Jóhann Helgason IF Elfsborg Active 113 / 121 40% 1 01.12.2026 -
Aidomo Emakhu Oxford United Active 109 / 132 40% 1 01.12.2026 -
Alex Luna Instituto Active 119 / 123 40% 1 24.11.2026 -
Eren Aydın Zira Active 114 / 101 40% 1 24.11.2026 -
Bénie Traoré New York City Active 123 / 140 40% 1 16.11.2026 -
Santiago Rodríguez Columbus Crew Active 128 / 118 40% 1 16.11.2026 -
Antonio Galeano Remo Stars Active 115 / 133 40% 2 13.11.2026 -
Patric Åslund Djurgarden Active 121 / 110 40% 1 13.11.2026 -
Sergio Lozano Jagiellonia Active 126 / 113 40% 1 12.11.2026 -
Daniel Karlsbakk Sarpsborg 08 Active 117 / 137 40% 1 10.11.2026 Needs More Info
Ammar Ramadan DAC Dunajska Streda Active 134 / 106 40% 2 09.11.2026 -
Bryan Ramírez FC Cincinnati Active 121 / 145 40% 1 08.11.2026 -
João Muniz Sporting CP Active 104 / 106 40% 1 06.11.2026 -
Andy Irving Sparta Prague Active 142 / 120 40% 1 05.11.2026 -
Hugo Aviander GIF Sundsvall Active 88 / 91 40% 1 04.11.2026 -
Tiago Freitas Benfica Active 121 / 123 40% 1 03.11.2026 -
Matteo Pérez Vinlöf Dinamo Zagreb Active 104 / 111 40% 1 02.11.2026 -
Eskil Edh AIK Active 126 / 113 40% 2 30.10.2026 -
Tadeo Allende Inter Miami CF Active 108 / 116 40% 1 30.10.2026 -
Marco Pašalić Orlando City Active 122 / 129 40% 1 29.10.2026 -
Paulos Abraham Hammarby Active 117 / 125 40% 1 27.10.2026 -
Mayckel Lahdo Malmo FF Active 139 / 119 40% 2 26.10.2026 Needs More Info
Tomás Chancalay Minnesota United FC Active 121 / 116 40% 1 18.10.2026 -
Facundo Mura Inter Miami CF Active 132 / 128 40% 1 16.10.2026 -
Antony Portland Timbers Active 118 / 143 40% 1 09.10.2026 -
Conrad Wallem Austria Wien Active 135 / 119 40% 1 08.10.2026 -
Mbekezeli Mbokazi Chicago Fire Active 106 / 145 40% 1 07.09.2026 -
Santiago Espíndola River Plate Active 93 / 105 40% 1 10.08.2026 -
João Klauss LA Galaxy Active 140 / 115 40% 1 02.08.2026 -